Time;durP1;ratioP1;P1;durP2;ratioP2;P2;SDS_P1;SDS_P2;PMS_P1;PMS_P2;Temp;Humidity;BMP_temperature;BMP_pressure;BME280_temperature;BME280_humidity;BME280_pressure;Samples;Min_cycle;Max_cycle;Signal;HPM_P1;HPM_P2
2022/01/24 00:01:49;;;;;;;4.15;2.78;;;2.40;99.90;;;;;;5096153;28;20681;-65
2022/01/24 00:04:15;;;;;;;5.32;3.40;;;2.40;99.90;;;;;;5096235;28;20583;-66
2022/01/24 00:06:41;;;;;;;4.65;3.28;;;2.30;99.90;;;;;;5096266;28;20175;-66
2022/01/24 00:09:08;;;;;;;5.70;3.38;;;2.30;99.90;;;;;;5096036;28;20188;-66
2022/01/24 00:27:58;;;;;;;5.00;3.05;;;1.90;99.90;;;;;;5095353;28;20202;-65
2022/01/24 00:30:24;;;;;;;6.32;3.40;;;1.90;99.90;;;;;;5095490;28;20715;-65
2022/01/24 00:32:49;;;;;;;4.82;3.03;;;1.80;99.90;;;;;;5094913;28;20180;-66
2022/01/24 00:35:15;;;;;;;5.57;3.45;;;1.70;99.90;;;;;;5093950;28;20631;-65
2022/01/24 00:37:41;;;;;;;4.53;3.00;;;1.70;99.90;;;;;;5095510;28;20539;-65
2022/01/24 00:40:07;;;;;;;6.30;3.70;;;1.60;99.90;;;;;;5094887;28;20180;-65
2022/01/24 00:47:49;;;;;;;6.28;4.35;;;1.60;99.90;;;;;;5095289;28;20292;-64
2022/01/24 00:55:36;;;;;;;6.70;4.53;;;1.60;99.90;;;;;;5094942;28;20172;-65
2022/01/24 00:58:02;;;;;;;9.95;5.72;;;1.70;99.90;;;;;;5094899;28;20697;-65
2022/01/24 01:00:27;;;;;;;8.23;5.57;;;1.70;99.90;;;;;;5094403;28;20302;-65
2022/01/24 01:02:53;;;;;;;9.32;5.07;;;1.70;99.90;;;;;;5094596;28;20207;-65
2022/01/24 01:08:12;;;;;;;7.78;4.75;;;1.80;99.90;;;;;;5094387;28;20204;-65
2022/01/24 01:18:48;;;;;;;9.48;4.55;;;1.90;99.90;;;;;;5094431;28;20215;-65
2022/01/24 01:21:15;;;;;;;8.73;4.75;;;1.90;99.90;;;;;;5094497;28;20211;-65
2022/01/24 01:23:50;;;;;;;8.18;4.57;;;1.90;99.90;;;;;;5094250;28;20239;-65
2022/01/24 01:26:26;;;;;;;7.10;4.07;;;1.90;99.90;;;;;;5093461;28;20247;-65
2022/01/24 01:28:58;;;;;;;7.35;4.45;;;1.90;99.90;;;;;;5094294;28;20196;-65
2022/01/24 01:31:41;;;;;;;6.75;4.20;;;1.80;99.90;;;;;;5094141;28;20192;-65
2022/01/24 01:58:02;;;;;;;5.07;3.50;;;1.70;99.90;;;;;;5092556;28;20172;-65
2022/01/24 02:00:27;;;;;;;6.70;3.87;;;1.60;99.90;;;;;;5090812;28;20254;-65
2022/01/24 02:02:53;;;;;;;7.13;3.93;;;1.70;99.90;;;;;;5093163;28;20222;-65
2022/01/24 02:05:18;;;;;;;5.63;3.60;;;1.70;99.90;;;;;;5093429;28;20180;-65
2022/01/24 02:07:49;;;;;;;5.63;3.50;;;1.70;99.90;;;;;;5093708;28;20213;-65
2022/01/24 02:10:17;;;;;;;6.25;4.18;;;1.70;99.90;;;;;;5093275;28;20172;-65
2022/01/24 02:12:43;;;;;;;6.35;4.15;;;1.70;99.90;;;;;;5093343;28;20172;-65
2022/01/24 02:15:09;;;;;;;5.33;3.73;;;1.60;99.90;;;;;;5092991;28;20176;-64
2022/01/24 02:17:50;;;;;;;4.82;3.60;;;1.60;99.90;;;;;;5093484;28;20267;-65
2022/01/24 02:25:44;;;;;;;4.18;3.30;;;1.60;99.90;;;;;;5093727;28;20704;-65
2022/01/24 02:28:12;;;;;;;5.70;3.63;;;1.70;99.90;;;;;;5093376;28;20176;-66
2022/01/24 02:33:32;;;;;;;10.60;5.53;;;1.70;99.90;;;;;;5073551;28;20195;-65
2022/01/24 02:35:58;;;;;;;19.90;9.03;;;1.60;99.90;;;;;;5093042;28;20176;-65
2022/01/24 02:49:13;;;;;;;33.20;13.88;;;1.30;99.90;;;;;;5092300;28;20223;-62
2022/01/24 02:51:48;;;;;;;21.40;9.18;;;1.30;99.90;;;;;;5093104;28;20200;-62
2022/01/24 02:54:19;;;;;;;25.67;10.67;;;1.20;99.90;;;;;;5091846;28;20179;-62
2022/01/24 02:56:44;;;;;;;31.27;13.50;;;1.20;99.90;;;;;;5093052;28;20183;-63
2022/01/24 02:59:10;;;;;;;24.50;12.02;;;1.10;99.90;;;;;;5092538;28;20549;-62
2022/01/24 03:01:35;;;;;;;17.50;9.60;;;1.10;99.90;;;;;;5092775;28;20183;-62
2022/01/24 03:04:01;;;;;;;14.47;7.63;;;1.10;99.90;;;;;;5092869;28;20215;-63
2022/01/24 03:06:26;;;;;;;12.90;6.33;;;1.00;99.90;;;;;;5092732;28;20183;-62
2022/01/24 03:08:52;;;;;;;10.47;5.90;;;1.00;99.90;;;;;;5092636;28;20186;-62
2022/01/24 03:11:20;;;;;;;8.10;4.53;;;0.90;99.90;;;;;;5091509;28;20183;-62
2022/01/24 03:13:45;;;;;;;6.80;4.27;;;0.90;99.90;;;;;;5092548;28;20195;-62
2022/01/24 03:16:11;;;;;;;7.37;4.50;;;0.90;99.90;;;;;;5074341;28;20259;-62
2022/01/24 03:18:36;;;;;;;6.23;4.10;;;0.80;99.90;;;;;;5092147;28;20562;-62
2022/01/24 03:21:03;;;;;;;9.10;4.97;;;0.80;99.90;;;;;;5090834;28;20172;-63
2022/01/24 03:23:28;;;;;;;8.23;4.73;;;0.80;99.90;;;;;;5092378;28;20223;-62
2022/01/24 03:25:54;;;;;;;5.60;3.97;;;0.80;99.90;;;;;;5090699;28;20180;-62
2022/01/24 03:28:20;;;;;;;5.83;3.77;;;0.70;99.90;;;;;;5092235;28;20663;-62
2022/01/24 03:30:46;;;;;;;7.30;3.77;;;0.70;99.90;;;;;;5091768;28;20180;-62
2022/01/24 03:33:12;;;;;;;6.50;3.80;;;0.70;99.90;;;;;;5090868;28;20177;-62
2022/01/24 03:35:43;;;;;;;4.67;3.50;;;0.60;99.90;;;;;;5092387;28;20780;-63
2022/01/24 03:38:10;;;;;;;6.40;3.57;;;0.60;99.90;;;;;;5092234;28;20207;-63
2022/01/24 03:40:35;;;;;;;24.58;8.75;;;0.60;99.90;;;;;;5092435;28;20177;-63
2022/01/24 03:43:01;;;;;;;37.60;13.83;;;0.60;99.90;;;;;;5092166;28;20211;-63
2022/01/24 03:45:43;;;;;;;30.70;11.73;;;0.50;99.90;;;;;;5092455;28;20164;-63
2022/01/24 03:50:54;;;;;;;46.90;14.83;;;0.50;99.90;;;;;;5092583;28;20222;-63
2022/01/24 03:53:20;;;;;;;77.60;20.27;;;0.40;99.90;;;;;;5092108;28;20575;-63
2022/01/24 03:55:45;;;;;;;124.97;31.57;;;0.40;99.90;;;;;;5092306;28;20179;-63
2022/01/24 03:58:11;;;;;;;146.60;32.97;;;0.40;99.90;;;;;;5092017;28;20543;-63
2022/01/24 04:00:36;;;;;;;157.47;35.80;;;0.40;99.90;;;;;;5091594;28;20232;-63
2022/01/24 04:03:02;;;;;;;142.57;34.73;;;0.40;99.90;;;;;;5091736;28;20277;-63
2022/01/24 04:05:28;;;;;;;133.67;31.43;;;0.40;99.90;;;;;;5092258;28;20181;-63
2022/01/24 04:07:53;;;;;;;118.20;29.97;;;0.40;99.90;;;;;;5091680;28;20191;-63
2022/01/24 04:10:21;;;;;;;56.57;16.00;;;0.40;99.90;;;;;;5091976;28;20232;-63
2022/01/24 04:12:49;;;;;;;24.60;8.10;;;0.30;99.90;;;;;;5092159;28;20205;-63
2022/01/24 04:15:26;;;;;;;8.60;4.63;;;0.30;99.90;;;;;;5091849;28;20275;-63
2022/01/24 04:18:10;;;;;;;7.23;4.20;;;0.30;99.90;;;;;;5091943;28;20245;-63
2022/01/24 04:23:21;;;;;;;7.07;4.20;;;0.30;99.90;;;;;;5091071;28;20280;-63
2022/01/24 04:25:46;;;;;;;8.33;3.80;;;0.30;99.90;;;;;;5091867;28;20180;-63
2022/01/24 04:28:12;;;;;;;6.20;4.03;;;0.20;99.90;;;;;;5091705;28;20195;-63
2022/01/24 04:30:38;;;;;;;4.87;3.50;;;0.20;99.90;;;;;;5091822;28;20180;-63
2022/01/24 04:33:04;;;;;;;7.73;4.40;;;0.20;99.90;;;;;;5091572;28;20180;-63
2022/01/24 04:35:29;;;;;;;6.93;4.17;;;0.20;99.90;;;;;;5090059;28;20263;-63
2022/01/24 04:37:55;;;;;;;5.80;3.87;;;0.20;99.90;;;;;;5091177;28;20192;-63
2022/01/24 04:40:21;;;;;;;7.03;4.00;;;0.20;99.90;;;;;;5091297;28;20249;-63
2022/01/24 04:42:52;;;;;;;5.83;3.60;;;0.20;99.90;;;;;;5089009;28;20540;-63
2022/01/24 04:45:31;;;;;;;5.80;3.80;;;0.20;99.90;;;;;;5093299;28;20188;-63
2022/01/24 04:54:16;;;;;;;5.20;3.37;;;0.10;99.90;;;;;;5094667;28;20187;-64
2022/01/24 04:56:13;;;;;;;5.50;3.53;;;0.10;99.90;;;;;;5091605;28;20199;-62
2022/01/24 04:58:38;;;;;;;5.63;3.60;;;0.10;99.90;;;;;;5094257;28;20206;-63
2022/01/24 05:01:04;;;;;;;5.70;3.50;;;0.10;99.90;;;;;;5094054;28;20265;-63
2022/01/24 05:03:29;;;;;;;5.43;3.67;;;0.10;99.90;;;;;;5094723;28;20246;-63
2022/01/24 05:05:55;;;;;;;5.57;3.70;;;0.10;99.90;;;;;;5093574;28;20192;-63
2022/01/24 05:08:20;;;;;;;6.00;3.70;;;0.10;99.90;;;;;;5094805;28;20242;-63
2022/01/24 05:11:03;;;;;;;5.73;3.50;;;0.10;99.90;;;;;;5094195;28;20182;-62
2022/01/24 05:24:25;;;;;;;7.03;4.33;;;-0.10;99.90;;;;;;5088329;28;20296;-62
2022/01/24 05:26:51;;;;;;;5.13;4.20;;;-0.10;99.90;;;;;;5094631;28;20183;-60
2022/01/24 05:29:17;;;;;;;6.37;3.90;;;-0.10;99.90;;;;;;5094073;28;20188;-60
2022/01/24 05:31:42;;;;;;;5.63;4.03;;;-0.10;99.90;;;;;;5092721;28;20631;-60
2022/01/24 05:34:08;;;;;;;9.10;4.13;;;-0.20;99.90;;;;;;5093065;28;20180;-60
2022/01/24 05:36:33;;;;;;;7.27;4.07;;;-0.20;99.90;;;;;;5094382;28;20180;-60
2022/01/24 05:39:00;;;;;;;6.97;4.23;;;-0.20;99.90;;;;;;5093888;28;20176;-60
2022/01/24 05:41:26;;;;;;;8.73;5.17;;;-0.20;99.90;;;;;;5092913;28;20194;-58
2022/01/24 05:43:52;;;;;;;7.30;4.60;;;-0.20;99.90;;;;;;5094198;28;20220;-61
2022/01/24 05:46:18;;;;;;;8.33;4.23;;;-0.20;99.90;;;;;;5093865;28;20646;-61
2022/01/24 05:48:43;;;;;;;6.27;4.03;;;-0.20;99.90;;;;;;5094198;28;20172;-60
2022/01/24 05:51:09;;;;;;;4.13;3.33;;;-0.20;99.90;;;;;;5094056;28;20176;-61
2022/01/24 05:53:34;;;;;;;6.93;3.90;;;-0.20;99.90;;;;;;5094261;28;20191;-61
2022/01/24 05:56:00;;;;;;;4.33;3.13;;;-0.20;99.90;;;;;;5092454;28;20183;-61
2022/01/24 05:58:26;;;;;;;6.83;3.53;;;-0.20;99.90;;;;;;5094017;28;20183;-61
2022/01/24 06:00:51;;;;;;;6.53;3.80;;;-0.10;99.90;;;;;;5093961;28;20313;-64
2022/01/24 06:03:17;;;;;;;7.67;3.80;;;-0.20;99.90;;;;;;5093776;28;20224;-64
2022/01/24 06:05:43;;;;;;;9.23;4.60;;;-0.20;99.90;;;;;;5092895;28;20251;-63
2022/01/24 06:08:09;;;;;;;6.97;3.83;;;-0.20;99.90;;;;;;5093359;28;20282;-61
2022/01/24 06:10:37;;;;;;;6.57;3.87;;;-0.20;99.90;;;;;;5093726;28;20180;-62
2022/01/24 06:13:03;;;;;;;5.57;4.07;;;-0.30;99.90;;;;;;5093584;28;20184;-62
2022/01/24 06:15:28;;;;;;;7.67;4.37;;;-0.20;99.90;;;;;;5093632;28;20196;-62
2022/01/24 06:17:54;;;;;;;9.63;5.20;;;-0.30;99.90;;;;;;5093082;28;20663;-62
2022/01/24 06:20:19;;;;;;;12.03;6.93;;;-0.30;99.90;;;;;;5093645;28;20180;-64
2022/01/24 06:22:45;;;;;;;14.90;7.03;;;-0.30;99.90;;;;;;5093583;28;20303;-63
2022/01/24 06:25:13;;;;;;;12.93;6.73;;;-0.30;99.90;;;;;;5093271;28;20187;-62
2022/01/24 06:27:39;;;;;;;13.40;6.60;;;-0.30;99.90;;;;;;5093477;28;20259;-62
2022/01/24 06:30:05;;;;;;;11.40;5.60;;;-0.30;99.90;;;;;;5093268;28;20211;-62
2022/01/24 06:32:30;;;;;;;10.30;5.40;;;-0.30;99.90;;;;;;5092944;28;20168;-62
2022/01/24 06:34:56;;;;;;;9.03;5.10;;;-0.40;99.90;;;;;;5093185;28;20175;-62
2022/01/24 06:37:22;;;;;;;7.73;5.00;;;-0.30;99.90;;;;;;5093461;28;20244;-62
2022/01/24 06:39:47;;;;;;;7.97;4.30;;;-0.40;99.90;;;;;;5093475;28;20216;-62
2022/01/24 06:42:21;;;;;;;8.40;4.47;;;-0.40;99.90;;;;;;5093341;28;20183;-62
2022/01/24 06:44:48;;;;;;;6.73;4.43;;;-0.40;99.90;;;;;;5093366;28;20222;-63
2022/01/24 06:47:13;;;;;;;6.97;4.63;;;-0.40;99.90;;;;;;5093215;28;20187;-64
2022/01/24 06:49:39;;;;;;;9.33;4.90;;;-0.40;99.90;;;;;;5093394;28;20176;-63
2022/01/24 06:52:07;;;;;;;6.00;4.53;;;-0.40;99.90;;;;;;5093185;28;20177;-64
2022/01/24 06:54:34;;;;;;;8.47;5.07;;;-0.40;99.90;;;;;;5093103;28;20186;-64
2022/01/24 06:57:00;;;;;;;9.40;5.53;;;-0.40;99.90;;;;;;5093046;28;20623;-63
2022/01/24 06:59:26;;;;;;;9.70;5.83;;;-0.40;99.90;;;;;;5092942;28;20224;-63
2022/01/24 07:01:51;;;;;;;11.00;5.53;;;-0.40;99.90;;;;;;5093106;28;20245;-64
2022/01/24 07:04:17;;;;;;;8.10;5.07;;;-0.40;99.90;;;;;;5093009;28;20560;-64
2022/01/24 07:06:42;;;;;;;7.40;4.90;;;-0.40;99.90;;;;;;5093019;28;20513;-63
2022/01/24 07:09:08;;;;;;;7.10;4.50;;;-0.40;99.90;;;;;;5091394;28;20218;-63
2022/01/24 07:11:37;;;;;;;6.23;4.70;;;-0.30;99.90;;;;;;5092970;28;20176;-63
2022/01/24 07:14:06;;;;;;;7.73;4.77;;;-0.40;99.90;;;;;;5091657;28;20188;-61
2022/01/24 07:16:50;;;;;;;7.33;4.87;;;-0.40;99.90;;;;;;5092937;28;20196;-63
2022/01/24 07:19:15;;;;;;;7.60;4.87;;;-0.40;99.90;;;;;;5093081;28;20180;-63
2022/01/24 07:21:41;;;;;;;7.40;4.77;;;-0.40;99.90;;;;;;5092767;28;20534;-63
2022/01/24 07:24:07;;;;;;;10.10;5.40;;;-0.30;99.90;;;;;;5092343;28;20208;-63
2022/01/24 07:26:32;;;;;;;9.27;5.13;;;-0.30;99.90;;;;;;5092824;28;20191;-62
2022/01/24 07:28:58;;;;;;;8.43;4.90;;;-0.30;99.90;;;;;;5092643;28;20182;-62
2022/01/24 07:31:24;;;;;;;8.63;5.80;;;-0.30;99.90;;;;;;5092629;28;20172;-63
2022/01/24 07:33:51;;;;;;;10.73;6.17;;;-0.30;99.90;;;;;;5092494;28;20236;-63
2022/01/24 07:36:16;;;;;;;11.63;6.73;;;-0.30;99.90;;;;;;5092615;28;20208;-63
2022/01/24 07:38:42;;;;;;;11.13;5.90;;;-0.20;99.90;;;;;;5092568;28;20704;-63
2022/01/24 07:41:08;;;;;;;10.47;6.20;;;-0.20;99.90;;;;;;5092481;28;20187;-63
2022/01/24 07:43:34;;;;;;;13.03;6.70;;;-0.10;99.90;;;;;;5092527;28;20215;-62
2022/01/24 07:45:59;;;;;;;15.40;8.23;;;0.00;99.90;;;;;;5092367;28;20225;-63
2022/01/24 07:48:25;;;;;;;13.93;8.17;;;0.00;99.90;;;;;;5092328;28;20229;-63
2022/01/24 07:50:52;;;;;;;16.30;8.53;;;0.00;99.90;;;;;;5092414;28;20172;-63
2022/01/24 07:53:19;;;;;;;16.77;9.07;;;0.10;99.90;;;;;;5092304;28;20631;-63
2022/01/24 07:55:45;;;;;;;22.77;10.13;;;0.20;99.90;;;;;;5092284;28;20164;-63
2022/01/24 07:58:11;;;;;;;21.90;10.67;;;0.20;99.90;;;;;;5092336;28;20183;-63
2022/01/24 08:00:37;;;;;;;19.13;9.17;;;0.30;99.90;;;;;;5092154;28;20626;-64
2022/01/24 08:03:05;;;;;;;14.30;8.00;;;0.40;99.90;;;;;;5092133;28;20204;-63
2022/01/24 08:05:31;;;;;;;12.00;7.47;;;0.50;99.90;;;;;;5092311;28;20175;-63
2022/01/24 08:07:57;;;;;;;20.47;8.37;;;0.60;99.90;;;;;;5092132;28;20179;-63
2022/01/24 08:10:22;;;;;;;15.57;8.07;;;0.70;99.90;;;;;;5092292;28;20532;-63
2022/01/24 08:12:48;;;;;;;20.67;10.87;;;0.90;99.90;;;;;;5092215;28;20175;-63
2022/01/24 08:15:14;;;;;;;20.63;10.73;;;1.00;99.90;;;;;;5092132;28;20168;-63
2022/01/24 08:17:42;;;;;;;22.93;11.93;;;1.10;99.90;;;;;;5092282;28;20180;-63
2022/01/24 08:20:09;;;;;;;22.77;11.93;;;1.10;99.90;;;;;;5092729;28;20260;-63
2022/01/24 08:22:35;;;;;;;21.53;11.17;;;1.20;99.90;;;;;;5094801;28;20263;-63
2022/01/24 08:25:04;;;;;;;17.03;9.57;;;1.30;99.90;;;;;;5095968;28;20761;-63
2022/01/24 08:27:33;;;;;;;17.13;9.80;;;1.40;99.90;;;;;;5096097;28;20168;-63
2022/01/24 08:29:59;;;;;;;26.33;11.80;;;1.50;99.90;;;;;;5095599;28;20187;-63
2022/01/24 08:32:25;;;;;;;20.80;10.07;;;1.60;99.90;;;;;;5093973;28;20176;-63
2022/01/24 08:34:51;;;;;;;19.02;9.52;;;1.70;99.90;;;;;;5092417;28;20649;-64
2022/01/24 08:37:17;;;;;;;13.98;7.53;;;1.80;99.90;;;;;;5095188;28;20202;-63
2022/01/24 08:39:43;;;;;;;18.63;9.30;;;1.90;99.90;;;;;;5095784;28;20241;-63
2022/01/24 08:47:19;;;;;;;18.83;9.00;;;2.20;99.90;;;;;;5095807;28;20225;-64
2022/01/24 08:49:45;;;;;;;13.02;7.43;;;2.30;99.90;;;;;;5094415;28;20184;-63
2022/01/24 08:52:10;;;;;;;12.02;7.18;;;2.40;99.90;;;;;;5095454;28;20172;-63
2022/01/24 08:54:36;;;;;;;11.20;7.05;;;2.40;99.90;;;;;;5094287;28;20229;-63
2022/01/24 08:57:02;;;;;;;10.32;6.38;;;2.50;99.90;;;;;;5095386;28;20172;-63
2022/01/24 08:59:28;;;;;;;10.13;6.45;;;2.60;99.90;;;;;;5095242;28;20277;-63
2022/01/24 09:01:54;;;;;;;9.90;6.45;;;2.70;99.90;;;;;;5095402;28;20176;-64
2022/01/24 09:04:20;;;;;;;11.75;6.38;;;2.80;99.90;;;;;;5095207;28;20632;-63
2022/01/24 09:06:45;;;;;;;9.50;6.35;;;2.80;99.90;;;;;;5095255;28;20824;-63
2022/01/24 09:09:13;;;;;;;13.10;7.15;;;2.90;99.90;;;;;;5095204;28;20180;-63
2022/01/24 09:11:38;;;;;;;12.40;7.20;;;3.00;99.90;;;;;;5095239;28;20213;-63
2022/01/24 09:14:06;;;;;;;11.65;7.32;;;3.00;99.90;;;;;;5095009;28;20168;-64
2022/01/24 09:16:32;;;;;;;11.15;6.70;;;3.10;99.90;;;;;;5095182;28;20172;-63
2022/01/24 09:18:58;;;;;;;12.77;5.97;;;3.10;99.90;;;;;;5095003;28;20176;-63
2022/01/24 09:21:28;;;;;;;9.18;5.93;;;3.20;99.90;;;;;;5094820;28;20666;-63
2022/01/24 09:23:53;;;;;;;9.18;5.95;;;3.30;99.90;;;;;;5094888;28;20274;-64
2022/01/24 09:26:19;;;;;;;9.00;5.65;;;3.30;99.90;;;;;;5094899;28;20251;-63
2022/01/24 09:28:45;;;;;;;7.60;5.28;;;3.40;99.90;;;;;;5094839;28;20202;-63
2022/01/24 09:31:11;;;;;;;7.18;5.38;;;3.40;99.90;;;;;;5094619;28;20215;-63
2022/01/24 09:33:36;;;;;;;8.10;5.20;;;3.50;99.90;;;;;;5094734;28;20181;-63
2022/01/24 09:36:03;;;;;;;8.60;5.72;;;3.60;99.90;;;;;;5094653;28;20322;-63
2022/01/24 09:38:32;;;;;;;10.98;5.65;;;3.60;99.90;;;;;;5094719;28;20597;-63
2022/01/24 09:40:59;;;;;;;8.60;5.50;;;3.70;99.90;;;;;;5094594;28;20573;-63
2022/01/24 09:43:25;;;;;;;10.02;6.00;;;3.70;99.90;;;;;;5094452;28;20216;-63
2022/01/24 09:45:51;;;;;;;8.38;5.38;;;3.80;99.90;;;;;;5093204;28;20636;-63
2022/01/24 09:48:17;;;;;;;7.97;5.88;;;3.90;99.90;;;;;;5094434;28;20179;-63
2022/01/24 09:50:45;;;;;;;7.35;5.50;;;4.00;99.90;;;;;;5094377;28;20532;-63
2022/01/24 09:53:14;;;;;;;7.65;5.10;;;4.10;99.90;;;;;;5093088;28;20184;-63
2022/01/24 09:55:39;;;;;;;9.13;5.90;;;4.20;99.90;;;;;;5094311;28;20714;-64
2022/01/24 09:58:05;;;;;;;8.82;5.50;;;4.30;99.90;;;;;;5094118;28;20410;-64
2022/01/24 10:00:31;;;;;;;7.32;5.72;;;4.40;99.90;;;;;;5094031;28;20626;-63
2022/01/24 10:02:58;;;;;;;8.02;5.65;;;4.50;99.90;;;;;;5094022;28;20282;-64
2022/01/24 10:05:30;;;;;;;7.82;5.53;;;4.50;99.90;;;;;;5092932;28;20624;-64
2022/01/24 10:08:01;;;;;;;8.43;5.65;;;4.60;99.90;;;;;;5093980;28;20215;-64
2022/01/24 10:10:45;;;;;;;7.90;5.20;;;4.60;99.90;;;;;;5094064;28;20194;-63
2022/01/24 10:19:22;;;;;;;10.70;6.57;;;4.80;99.90;;;;;;5093909;28;20172;-64
2022/01/24 10:21:53;;;;;;;9.23;5.88;;;4.90;99.90;;;;;;5089089;28;20251;-63
2022/01/24 10:24:40;;;;;;;10.32;6.20;;;5.00;99.90;;;;;;5093583;28;20242;-63
2022/01/24 10:27:16;;;;;;;10.88;5.88;;;5.20;99.90;;;;;;5093616;28;20191;-64
2022/01/24 10:29:49;;;;;;;7.50;5.43;;;5.40;99.90;;;;;;5093738;28;20501;-64
2022/01/24 10:32:39;;;;;;;6.75;4.60;;;5.70;99.90;;;;;;5093649;28;20589;-64
2022/01/24 10:35:30;;;;;;;7.47;4.78;;;6.00;99.90;;;;;;5093400;28;20576;-64
2022/01/24 10:38:41;;;;;;;5.07;4.35;;;6.10;99.90;;;;;;5093457;28;20223;-64
2022/01/24 10:43:45;;;;;;;6.57;3.67;;;6.40;99.90;;;;;;5092932;28;20349;-63
2022/01/24 10:46:12;;;;;;;5.65;4.18;;;6.40;99.90;;;;;;5093317;28;20643;-64
2022/01/24 10:48:43;;;;;;;9.50;5.95;;;6.50;99.90;;;;;;5093427;28;20181;-64
2022/01/24 10:51:18;;;;;;;10.95;7.15;;;6.60;99.90;;;;;;5093244;28;20176;-64
2022/01/24 10:53:48;;;;;;;6.22;4.55;;;6.60;99.90;;;;;;5093149;28;20313;-64
2022/01/24 10:56:53;;;;;;;4.97;4.47;;;6.70;99.90;;;;;;5093148;28;20172;-64
2022/01/24 10:59:22;;;;;;;5.85;4.25;;;6.70;99.90;;;;;;5083900;28;20721;-64
2022/01/24 11:01:56;;;;;;;6.10;4.47;;;6.70;99.90;;;;;;5091791;28;20179;-64
2022/01/24 11:04:24;;;;;;;4.70;3.90;;;6.70;99.90;;;;;;5093125;28;20219;-64
2022/01/24 11:06:54;;;;;;;5.53;3.80;;;6.60;99.90;;;;;;5092980;28;20180;-64
2022/01/24 11:09:27;;;;;;;7.32;4.07;;;6.60;99.90;;;;;;5093003;28;20313;-64
2022/01/24 11:12:08;;;;;;;6.32;3.90;;;6.60;99.90;;;;;;5092982;28;20176;-64
2022/01/24 11:14:36;;;;;;;5.15;4.40;;;6.60;99.90;;;;;;5092952;28;20176;-63
2022/01/24 11:17:03;;;;;;;5.60;4.70;;;6.70;99.90;;;;;;5092827;28;20210;-64
2022/01/24 11:21:59;;;;;;;8.10;4.70;;;6.70;99.90;;;;;;5092825;28;20183;-64
2022/01/24 11:24:38;;;;;;;4.43;3.88;;;6.70;99.90;;;;;;5092682;28;20208;-63
2022/01/24 11:27:08;;;;;;;5.00;3.55;;;6.60;99.90;;;;;;5092673;28;20573;-64
2022/01/24 11:29:35;;;;;;;4.32;3.65;;;6.70;99.90;;;;;;5092720;28;20184;-64
2022/01/24 11:32:16;;;;;;;7.13;3.60;;;6.90;99.90;;;;;;5092486;28;20187;-64
2022/01/24 11:34:47;;;;;;;4.65;3.58;;;7.00;99.90;;;;;;5092707;28;20203;-64
2022/01/24 11:37:43;;;;;;;6.55;4.18;;;7.00;99.90;;;;;;5091371;28;20176;-65
2022/01/24 11:40:19;;;;;;;5.75;4.03;;;7.10;99.90;;;;;;5092471;28;20592;-64
2022/01/24 11:42:47;;;;;;;6.07;4.10;;;7.10;99.90;;;;;;5092365;28;20183;-64
2022/01/24 11:45:17;;;;;;;8.38;5.10;;;7.00;99.90;;;;;;5092426;28;20262;-64
2022/01/24 11:47:45;;;;;;;5.10;4.00;;;7.00;99.90;;;;;;5092472;28;20199;-64
2022/01/24 11:50:31;;;;;;;4.82;4.10;;;7.10;99.90;;;;;;5092388;28;20191;-64
2022/01/24 11:52:57;;;;;;;11.93;4.50;;;7.10;99.90;;;;;;5092368;28;20183;-64
2022/01/24 11:55:33;;;;;;;5.18;4.10;;;7.10;99.90;;;;;;5094940;28;20293;-64
2022/01/24 11:58:04;;;;;;;5.45;3.70;;;7.10;99.90;;;;;;5095486;28;20225;-64
2022/01/24 12:00:37;;;;;;;6.57;3.95;;;7.20;99.90;;;;;;5096471;28;20265;-64
2022/01/24 12:03:23;;;;;;;5.15;3.95;;;7.20;99.90;;;;;;5096360;28;20230;-64
2022/01/24 12:05:53;;;;;;;7.38;4.30;;;7.20;99.90;;;;;;5096456;28;20175;-64
2022/01/24 12:08:35;;;;;;;7.88;4.10;;;7.20;99.90;;;;;;5096314;28;20635;-64
2022/01/24 12:11:20;;;;;;;4.82;3.42;;;7.20;99.90;;;;;;5096295;28;20180;-64
2022/01/24 12:13:49;;;;;;;4.78;3.63;;;7.20;99.90;;;;;;5096286;28;20184;-64
2022/01/24 12:16:16;;;;;;;9.80;4.10;;;7.20;99.90;;;;;;5096663;28;20523;-64
2022/01/24 12:18:44;;;;;;;5.35;3.00;;;7.10;99.90;;;;;;5096257;28;20293;-64
2022/01/24 12:21:15;;;;;;;5.05;3.38;;;7.10;99.90;;;;;;5096307;28;20172;-63
2022/01/24 12:23:55;;;;;;;4.53;3.38;;;7.00;99.90;;;;;;5096010;28;20294;-63
2022/01/24 12:26:24;;;;;;;5.32;3.08;;;7.00;99.90;;;;;;5096128;28;20687;-64
2022/01/24 12:29:04;;;;;;;4.43;3.13;;;6.90;99.90;;;;;;5096017;28;20175;-64
2022/01/24 12:31:34;;;;;;;4.47;2.92;;;6.90;99.90;;;;;;5095995;28;20179;-64
2022/01/24 12:34:08;;;;;;;4.28;2.92;;;7.00;99.90;;;;;;5095869;28;20161;-64
2022/01/24 12:36:37;;;;;;;5.28;3.20;;;7.00;99.90;;;;;;5096009;28;20180;-64
2022/01/24 12:39:32;;;;;;;4.22;2.60;;;7.00;99.90;;;;;;5096052;28;20168;-64
2022/01/24 12:42:10;;;;;;;4.20;3.03;;;7.00;99.90;;;;;;5095748;28;20317;-64
2022/01/24 12:47:13;;;;;;;8.52;3.40;;;7.00;99.90;;;;;;5095486;28;20172;-64
2022/01/24 12:49:40;;;;;;;7.18;3.10;;;7.00;99.90;;;;;;5095750;28;20214;-63
2022/01/24 12:52:18;;;;;;;5.60;2.83;;;7.00;99.90;;;;;;5095488;28;20264;-64
2022/01/24 12:54:48;;;;;;;3.45;2.85;;;7.00;99.90;;;;;;5094430;28;20233;-62
2022/01/24 12:57:16;;;;;;;5.90;3.08;;;7.10;99.90;;;;;;5095088;28;20662;-64
2022/01/24 12:59:56;;;;;;;4.63;3.17;;;7.10;99.90;;;;;;5094057;28;20718;-63
2022/01/24 13:02:34;;;;;;;4.00;2.75;;;7.10;99.90;;;;;;5094773;28;20188;-63
2022/01/24 13:05:08;;;;;;;4.97;3.30;;;7.10;99.90;;;;;;5094214;28;20640;-64
2022/01/24 13:07:36;;;;;;;4.25;2.92;;;7.00;99.90;;;;;;5075440;28;20172;-63
2022/01/24 13:10:18;;;;;;;4.55;2.80;;;7.10;99.90;;;;;;5093987;28;20666;-63
2022/01/24 13:12:53;;;;;;;4.75;3.10;;;7.10;99.90;;;;;;5095177;28;20183;-63
2022/01/24 13:20:24;;;;;;;5.03;2.47;;;7.00;99.90;;;;;;5075023;28;20180;-62
2022/01/24 13:21:08;;;;;;;4.80;3.00;;;6.90;99.90;;;;;;5095305;28;20183;-63
2022/01/24 13:23:39;;;;;;;5.97;2.83;;;6.80;99.90;;;;;;5094945;28;20291;-64
2022/01/24 13:26:06;;;;;;;4.38;3.00;;;6.80;99.90;;;;;;5094881;28;20662;-64
2022/01/24 13:28:32;;;;;;;3.05;2.40;;;6.80;99.90;;;;;;5095063;28;20215;-64
2022/01/24 13:31:01;;;;;;;7.80;4.18;;;6.80;99.90;;;;;;5094811;28;20200;-64
2022/01/24 13:33:29;;;;;;;5.07;3.03;;;6.80;99.90;;;;;;5094852;28;20583;-64
2022/01/24 13:36:00;;;;;;;8.30;3.00;;;6.80;99.90;;;;;;5094643;28;20172;-64
2022/01/24 13:38:31;;;;;;;4.13;2.40;;;6.80;99.90;;;;;;5094777;28;20180;-63
2022/01/24 13:41:08;;;;;;;4.25;2.85;;;6.80;99.90;;;;;;5093504;28;20176;-64
2022/01/24 13:43:46;;;;;;;4.53;2.90;;;6.80;99.90;;;;;;5093594;28;20337;-64
2022/01/24 13:46:35;;;;;;;5.05;3.00;;;6.80;99.90;;;;;;5081269;28;20176;-66
2022/01/24 13:49:16;;;;;;;5.78;3.30;;;6.80;99.90;;;;;;5081165;28;20176;-68
2022/01/24 13:51:51;;;;;;;3.95;2.60;;;6.80;99.90;;;;;;5094336;28;20210;-64
2022/01/24 13:54:19;;;;;;;3.03;2.60;;;6.70;99.90;;;;;;5093692;28;20179;-64
2022/01/24 13:56:50;;;;;;;5.10;2.70;;;6.70;99.90;;;;;;5094097;28;20172;-65
2022/01/24 13:59:27;;;;;;;5.47;2.97;;;6.80;99.90;;;;;;5092586;28;20286;-64
2022/01/24 14:02:22;;;;;;;4.90;3.00;;;6.80;99.90;;;;;;5093978;28;20623;-65
2022/01/24 14:04:52;;;;;;;5.07;2.45;;;6.70;99.90;;;;;;5090855;28;20227;-65
2022/01/24 14:07:33;;;;;;;3.38;2.55;;;6.80;99.90;;;;;;5092848;28;20180;-63
2022/01/24 14:10:03;;;;;;;5.30;2.85;;;6.80;99.90;;;;;;5093375;28;20191;-63
2022/01/24 14:15:21;;;;;;;3.78;2.33;;;6.80;99.90;;;;;;5093533;28;20233;-63
2022/01/24 14:20:52;;;;;;;2.85;2.53;;;6.70;99.90;;;;;;5093925;28;20241;-64
2022/01/24 14:23:21;;;;;;;5.38;2.65;;;6.70;99.90;;;;;;5092458;28;20303;-64
2022/01/24 14:25:47;;;;;;;2.70;2.38;;;6.70;99.90;;;;;;5093559;28;20215;-62
2022/01/24 14:28:13;;;;;;;3.70;2.92;;;6.70;99.90;;;;;;5093721;28;20192;-63
2022/01/24 14:30:43;;;;;;;3.90;3.40;;;6.70;99.90;;;;;;5126493;27;20180;-63
2022/01/24 14:33:28;;;;;;;4.38;2.50;;;6.70;99.90;;;;;;5093453;28;20248;-63
2022/01/24 14:35:56;;;;;;;4.68;3.10;;;6.60;99.90;;;;;;5093614;28;20169;-63
2022/01/24 14:38:39;;;;;;;3.72;2.50;;;6.60;99.90;;;;;;5092418;28;20176;-63
2022/01/24 14:41:06;;;;;;;4.55;2.63;;;6.60;99.90;;;;;;5075360;28;20176;-63
2022/01/24 14:46:20;;;;;;;4.30;2.50;;;6.40;99.90;;;;;;5093773;28;20184;-64
2022/01/24 14:48:45;;;;;;;5.72;2.63;;;6.40;99.90;;;;;;5092712;28;20732;-64
2022/01/24 14:51:11;;;;;;;6.25;2.60;;;6.30;99.90;;;;;;5089975;28;20177;-63
2022/01/24 14:53:37;;;;;;;4.05;2.70;;;6.30;99.90;;;;;;5091986;28;20225;-64
2022/01/24 14:56:03;;;;;;;4.85;3.53;;;6.20;99.90;;;;;;5093058;28;20176;-64
2022/01/24 14:58:29;;;;;;;5.03;3.20;;;6.20;99.90;;;;;;5093226;28;20172;-64
2022/01/24 15:00:54;;;;;;;3.20;2.45;;;6.10;99.90;;;;;;5091351;28;20254;-65
2022/01/24 15:03:20;;;;;;;4.80;3.13;;;6.10;99.90;;;;;;5092669;28;20222;-64
2022/01/24 15:05:46;;;;;;;4.68;3.05;;;6.10;99.90;;;;;;5091677;28;20671;-63
2022/01/24 15:08:12;;;;;;;5.15;3.28;;;6.00;99.90;;;;;;5092552;28;20263;-64
2022/01/24 15:10:38;;;;;;;4.95;2.83;;;6.00;99.90;;;;;;5092839;28;20594;-64
2022/01/24 15:13:07;;;;;;;5.40;3.15;;;6.00;99.90;;;;;;5092940;28;20164;-64
2022/01/24 15:15:37;;;;;;;5.97;3.05;;;6.00;99.90;;;;;;5091364;28;20280;-64